Time;durP1;ratioP1;P1;durP2;ratioP2;P2;SDS_P1;SDS_P2;PMS_P1;PMS_P2;Temp;Humidity;BMP_temperature;BMP_pressure;BME280_temperature;BME280_humidity;BME280_pressure;Samples;Min_cycle;Max_cycle;Signal;HPM_P1;HPM_P2
2022/12/01 00:00:45;;;;;;;;;;;;;;;;;;5116888;28;19907;-74
2022/12/01 00:03:11;;;;;;;;;;;;;;;;;;5114816;28;19953;-75
2022/12/01 00:05:37;;;;;;;;;;;;;;;;;;5116395;28;19916;-74
2022/12/01 00:08:04;;;;;;;;;;;;;;;;;;5115996;28;19958;-74
2022/12/01 00:10:30;;;;;;;;;;;;;;;;;;5115708;28;19908;-74
2022/12/01 00:12:56;;;;;;;;;;;;;;;;;;5116353;28;20365;-75
2022/12/01 00:15:22;;;;;;;;;;;;;;;;;;5115923;28;19908;-74
2022/12/01 00:17:48;;;;;;;;;;;;;;;;;;5116408;28;19908;-74
2022/12/01 00:20:14;;;;;;;;;;;;;;;;;;5116155;28;19995;-73
2022/12/01 00:22:40;;;;;;;;;;;;;;;;;;5114471;28;19914;-74
2022/12/01 00:25:06;;;;;;;;;;;;;;;;;;5114832;28;19920;-74
2022/12/01 00:27:32;;;;;;;;;;;;;;;;;;5116034;28;19915;-72
2022/12/01 00:29:58;;;;;;;;;;;;;;;;;;5114402;28;19957;-73
2022/12/01 00:32:24;;;;;;;;;;;;;;;;;;5115904;28;19912;-73
2022/12/01 00:34:49;;;;;;;;;;;;;;;;;;5115899;28;19908;-73
2022/12/01 00:37:15;;;;;;;;;;;;;;;;;;5115490;28;19912;-73
2022/12/01 00:39:41;;;;;;;;;;;;;;;;;;5115895;28;19915;-72
2022/12/01 00:42:07;;;;;;;;;;;;;;;;;;5115880;28;20271;-73
2022/12/01 00:44:33;;;;;;;;;;;;;;;;;;5115039;28;20282;-73
2022/12/01 00:46:59;;;;;;;;;;;;;;;;;;5115830;28;19912;-72
2022/12/01 00:49:25;;;;;;;;;;;;;;;;;;5115616;28;19951;-72
2022/12/01 00:51:51;;;;;;;;;;;;;;;;;;5115374;28;19911;-72
2022/12/01 00:54:17;;;;;;;;;;;;;;;;;;5115481;28;20365;-72
2022/12/01 00:56:43;;;;;;;;;;;;;;;;;;5115479;28;19908;-72
2022/12/01 00:59:10;;;;;;;;;;;;;;;;;;5114996;28;20006;-72
2022/12/01 01:01:36;;;;;;;;;;;;;;;;;;5114031;28;19908;-73
2022/12/01 01:04:02;;;;;;;;;;;;;;;;;;5114137;28;19907;-74
2022/12/01 01:06:28;;;;;;;;;;;;;;;;;;5114778;28;19919;-74
2022/12/01 01:08:54;;;;;;;;;;;;;;;;;;5115331;28;19953;-73
2022/12/01 01:11:20;;;;;;;;;;;;;;;;;;5114804;28;19911;-73
2022/12/01 01:13:46;;;;;;;;;;;;;;;;;;5113874;28;19908;-73
2022/12/01 01:16:12;;;;;;;;;;;;;;;;;;5115182;28;19975;-73
2022/12/01 01:18:38;;;;;;;;;;;;;;;;;;5114661;28;19908;-73
2022/12/01 01:21:04;;;;;;;;;;;;;;;;;;5114960;28;19907;-73
2022/12/01 01:23:30;;;;;;;;;;;;;;;;;;5114116;28;19926;-73
2022/12/01 01:25:56;;;;;;;;;;;;;;;;;;5114660;28;19916;-73
2022/12/01 01:28:22;;;;;;;;;;;;;;;;;;5114918;28;20279;-74
2022/12/01 01:30:48;;;;;;;;;;;;;;;;;;5114888;28;19964;-73
2022/12/01 01:33:13;;;;;;;;;;;;;;;;;;5114344;28;19908;-74
2022/12/01 01:35:39;;;;;;;;;;;;;;;;;;5114780;28;19915;-74
2022/12/01 01:38:05;;;;;;;;;;;;;;;;;;5114735;28;20002;-74
2022/12/01 01:40:31;;;;;;;;;;;;;;;;;;5114275;28;19960;-75
2022/12/01 01:42:57;;;;;;;;;;;;;;;;;;5114408;28;20279;-73
2022/12/01 01:45:23;;;;;;;;;;;;;;;;;;5114581;28;19942;-73
2022/12/01 01:47:49;;;;;;;;;;;;;;;;;;5114222;28;20340;-74
2022/12/01 01:50:15;;;;;;;;;;;;;;;;;;5114931;28;19955;-74
2022/12/01 01:52:41;;;;;;;;;;;;;;;;;;5114596;28;19961;-73
2022/12/01 01:55:07;;;;;;;;;;;;;;;;;;5114217;28;19907;-73
2022/12/01 01:57:33;;;;;;;;;;;;;;;;;;5114527;28;19915;-73
2022/12/01 01:59:59;;;;;;;;;;;;;;;;;;5114493;28;19908;-74
2022/12/01 02:02:25;;;;;;;;;;;;;;;;;;5114020;28;20278;-72
2022/12/01 02:04:51;;;;;;;;;;;;;;;;;;5114315;28;19919;-72
2022/12/01 02:07:17;;;;;;;;;;;;;;;;;;5114429;28;19933;-72
2022/12/01 02:09:43;;;;;;;;;;;;;;;;;;5112634;28;19999;-72
2022/12/01 02:12:10;;;;;;;;;;;;;;;;;;5114274;28;19908;-72
2022/12/01 02:14:36;;;;;;;;;;;;;;;;;;5113973;28;19995;-72
2022/12/01 02:17:02;;;;;;;;;;;;;;;;;;5114245;28;20011;-73
2022/12/01 02:19:28;;;;;;;;;;;;;;;;;;5114302;28;19934;-73
2022/12/01 02:21:54;;;;;;;;;;;;;;;;;;5113924;28;20007;-73
2022/12/01 02:24:20;;;;;;;;;;;;;;;;;;5114228;28;19908;-72
2022/12/01 02:26:46;;;;;;;;;;;;;;;;;;5112917;28;20362;-73
2022/12/01 02:29:12;;;;;;;;;;;;;;;;;;5113786;28;19933;-73
2022/12/01 02:31:38;;;;;;;;;;;;;;;;;;5114501;28;19953;-73
2022/12/01 02:34:04;;;;;;;;;;;;;;;;;;5114898;28;19915;-73
2022/12/01 02:36:29;;;;;;;;;;;;;;;;;;5117856;28;19930;-74
2022/12/01 02:38:56;;;;;;;;;;;;;;;;;;5118193;28;19907;-73
2022/12/01 02:41:22;;;;;;;;;;;;;;;;;;5118106;28;19908;-73
2022/12/01 02:43:47;;;;;;;;;;;;;;;;;;5116199;28;19953;-73
2022/12/01 02:46:13;;;;;;;;;;;;;;;;;;5118635;28;20344;-72
2022/12/01 02:48:40;;;;;;;;;;;;;;;;;;5116657;28;20300;-73
2022/12/01 02:51:05;;;;;;;;;;;;;;;;;;5116176;28;19908;-73
2022/12/01 02:53:31;;;;;;;;;;;;;;;;;;5117939;27;19907;-73
2022/12/01 02:55:57;;;;;;;;;;;;;;;;;;5117800;28;19919;-73
2022/12/01 02:58:23;;;;;;;;;;;;;;;;;;5117498;28;20279;-74
2022/12/01 03:00:49;;;;;;;;;;;;;;;;;;5117725;27;20279;-74
2022/12/01 03:03:16;;;;;;;;;;;;;;;;;;5117734;28;19912;-73
2022/12/01 03:05:42;;;;;;;;;;;;;;;;;;5115877;28;19960;-73
2022/12/01 03:08:12;;;;;;;;;;;;;;;;;;5117766;28;19995;-73
2022/12/01 03:10:38;;;;;;;;;;;;;;;;;;5117617;28;19908;-73
2022/12/01 03:13:04;;;;;;;;;;;;;;;;;;5117134;28;19908;-73
2022/12/01 03:15:30;;;;;;;;;;;;;;;;;;5117490;28;20002;-73
2022/12/01 03:17:56;;;;;;;;;;;;;;;;;;5117278;28;20364;-73
2022/12/01 03:20:22;;;;;;;;;;;;;;;;;;5117325;28;19908;-73
2022/12/01 03:22:48;;;;;;;;;;;;;;;;;;5117344;28;20267;-73
2022/12/01 03:25:14;;;;;;;;;;;;;;;;;;5117248;28;19911;-73
2022/12/01 03:27:40;;;;;;;;;;;;;;;;;;5117245;28;20416;-73
2022/12/01 03:30:09;;;;;;;;;;;;;;;;;;5117168;28;20314;-73
2022/12/01 03:32:35;;;;;;;;;;;;;;;;;;5116682;28;19961;-72
2022/12/01 03:35:03;;;;;;;;;;;;;;;;;;5115862;28;20316;-73
2022/12/01 03:37:31;;;;;;;;;;;;;;;;;;5117042;28;19912;-73
2022/12/01 03:39:57;;;;;;;;;;;;;;;;;;5116638;28;20398;-73
2022/12/01 03:42:23;;;;;;;;;;;;;;;;;;5115622;28;19908;-73
2022/12/01 03:44:49;;;;;;;;;;;;;;;;;;5114501;28;20010;-73
2022/12/01 03:47:14;;;;;;;;;;;;;;;;;;5115116;28;19907;-73
2022/12/01 03:49:40;;;;;;;;;;;;;;;;;;5116868;28;19947;-73
2022/12/01 03:52:06;;;;;;;;;;;;;;;;;;5116753;28;20421;-73
2022/12/01 03:54:32;;;;;;;;;;;;;;;;;;5116557;28;19908;-73
2022/12/01 03:56:58;;;;;;;;;;;;;;;;;;5116694;28;19908;-73
2022/12/01 03:59:24;;;;;;;;;;;;;;;;;;5117204;28;20344;-73
2022/12/01 04:01:50;;;;;;;;;;;;;;;;;;5116343;28;20332;-74
2022/12/01 04:04:16;;;;;;;;;;;;;;;;;;5116517;28;19908;-73
2022/12/01 04:06:42;;;;;;;;;;;;;;;;;;5116451;28;19966;-73
2022/12/01 04:09:08;;;;;;;;;;;;;;;;;;5116045;28;19908;-73
2022/12/01 04:14:19;;;;;;;;;;;;;;;;;;5116017;28;19938;-74
2022/12/01 04:16:45;;;;;;;;;;;;;;;;;;5116373;28;19908;-74
2022/12/01 04:19:11;;;;;;;;;;;;;;;;;;5115034;28;19962;-73
2022/12/01 04:21:36;;;;;;;;;;;;;;;;;;5115809;28;19914;-73
2022/12/01 04:24:03;;;;;;;;;;;;;;;;;;5116476;28;20367;-73
2022/12/01 04:26:29;;;;;;;;;;;;;;;;;;5116047;28;19939;-73
2022/12/01 04:28:55;;;;;;;;;;;;;;;;;;5115777;28;20391;-73
2022/12/01 04:31:21;;;;;;;;;;;;;;;;;;5114781;28;20357;-73
2022/12/01 04:33:47;;;;;;;;;;;;;;;;;;5115970;28;19915;-74
2022/12/01 04:36:12;;;;;;;;;;;;;;;;;;5115807;28;19907;-74
2022/12/01 04:38:38;;;;;;;;;;;;;;;;;;5115902;28;19908;-74
2022/12/01 04:41:04;;;;;;;;;;;;;;;;;;5116402;28;20356;-74
2022/12/01 04:43:30;;;;;;;;;;;;;;;;;;5115763;28;20369;-74
2022/12/01 04:45:56;;;;;;;;;;;;;;;;;;5115594;28;20287;-74
2022/12/01 04:48:22;;;;;;;;;;;;;;;;;;5115740;28;19953;-74
2022/12/01 04:50:48;;;;;;;;;;;;;;;;;;5115466;28;19958;-74
2022/12/01 04:53:14;;;;;;;;;;;;;;;;;;5115603;28;19908;-74
2022/12/01 04:55:40;;;;;;;;;;;;;;;;;;5115594;28;20408;-74
2022/12/01 04:58:06;;;;;;;;;;;;;;;;;;5115014;28;20360;-74
2022/12/01 05:00:32;;;;;;;;;;;;;;;;;;5115492;28;19907;-74
2022/12/01 05:02:58;;;;;;;;;;;;;;;;;;5115353;28;20313;-74
2022/12/01 05:05:24;;;;;;;;;;;;;;;;;;5114822;28;19915;-74
2022/12/01 05:07:50;;;;;;;;;;;;;;;;;;5115325;28;19908;-74
2022/12/01 05:10:17;;;;;;;;;;;;;;;;;;5115303;28;19915;-74
2022/12/01 05:12:45;;;;;;;;;;;;;;;;;;5114980;28;19933;-73
2022/12/01 05:15:11;;;;;;;;;;;;;;;;;;5115186;28;19919;-74
2022/12/01 05:17:37;;;;;;;;;;;;;;;;;;5114665;28;19908;-74
2022/12/01 05:22:47;;;;;;;;;;;;;;;;;;5115053;28;19914;-73
2022/12/01 05:25:13;;;;;;;;;;;;;;;;;;5114459;27;20002;-73
2022/12/01 05:27:39;;;;;;;;;;;;;;;;;;5115009;28;19908;-73
2022/12/01 05:30:05;;;;;;;;;;;;;;;;;;5113570;28;19907;-73
2022/12/01 05:32:31;;;;;;;;;;;;;;;;;;5114536;28;20360;-73
2022/12/01 05:34:57;;;;;;;;;;;;;;;;;;5114821;28;20317;-73
2022/12/01 05:37:23;;;;;;;;;;;;;;;;;;5114822;28;19908;-73
2022/12/01 05:39:49;;;;;;;;;;;;;;;;;;5113069;28;19911;-73
2022/12/01 05:42:15;;;;;;;;;;;;;;;;;;5114820;28;19918;-73
2022/12/01 05:44:41;;;;;;;;;;;;;;;;;;5114464;28;19924;-73
2022/12/01 05:47:07;;;;;;;;;;;;;;;;;;5114415;28;19951;-73
2022/12/01 05:49:32;;;;;;;;;;;;;;;;;;5113296;28;19915;-73
2022/12/01 05:51:58;;;;;;;;;;;;;;;;;;5113290;28;19908;-73
2022/12/01 05:54:24;;;;;;;;;;;;;;;;;;5114190;28;20409;-73
2022/12/01 05:56:50;;;;;;;;;;;;;;;;;;5113084;28;20308;-73
2022/12/01 05:59:16;;;;;;;;;;;;;;;;;;5114378;28;19994;-73
2022/12/01 06:01:42;;;;;;;;;;;;;;;;;;5113961;28;19908;-72
2022/12/01 06:04:08;;;;;;;;;;;;;;;;;;5114252;28;19914;-73
2022/12/01 06:06:34;;;;;;;;;;;;;;;;;;5114281;28;19955;-73
2022/12/01 06:09:00;;;;;;;;;;;;;;;;;;5112496;28;19953;-72
2022/12/01 06:11:26;;;;;;;;;;;;;;;;;;5113022;28;19951;-72
2022/12/01 06:13:52;;;;;;;;;;;;;;;;;;5113813;28;19922;-72
2022/12/01 06:16:18;;;;;;;;;;;;;;;;;;5114163;28;20006;-73
2022/12/01 06:18:44;;;;;;;;;;;;;;;;;;5114064;28;19930;-73
2022/12/01 06:21:10;;;;;;;;;;;;;;;;;;5102750;28;19908;-86
2022/12/01 06:23:36;;;;;;;;;;;;;;;;;;5096562;28;19919;-83
2022/12/01 06:26:02;;;;;;;;;;;;;;;;;;5094407;28;19924;-82
2022/12/01 06:28:28;;;;;;;;;;;;;;;;;;5094774;28;19993;-84
2022/12/01 06:30:53;;;;;;;;;;;;;;;;;;5097984;28;19908;-77
2022/12/01 06:33:19;;;;;;;;;;;;;;;;;;5089152;28;19916;-75
2022/12/01 06:35:45;;;;;;;;;;;;;;;;;;5089494;28;20036;-84
2022/12/01 06:38:11;;;;;;;;;;;;;;;;;;5093344;28;19916;-76
2022/12/01 06:40:37;;;;;;;;;;;;;;;;;;5093778;28;19957;-78
2022/12/01 06:43:03;;;;;;;;;;;;;;;;;;5095173;28;19944;-77
2022/12/01 06:45:29;;;;;;;;;;;;;;;;;;5092861;28;20298;-76
2022/12/01 06:47:56;;;;;;;;;;;;;;;;;;5084009;28;19913;-76
2022/12/01 06:50:23;;;;;;;;;;;;;;;;;;5069235;28;19944;-74
2022/12/01 06:52:53;;;;;;;;;;;;;;;;;;5046412;28;20386;-71
2022/12/01 06:55:24;;;;;;;;;;;;;;;;;;5069384;28;19908;-75
2022/12/01 06:57:58;;;;;;;;;;;;;;;;;;5049904;28;19973;-74
2022/12/01 07:00:24;;;;;;;;;;;;;;;;;;5067811;28;19917;-76
2022/12/01 07:02:50;;;;;;;;;;;;;;;;;;5069027;28;19923;-75
2022/12/01 07:05:18;;;;;;;;;;;;;;;;;;5064141;28;20023;-73
2022/12/01 07:07:50;;;;;;;;;;;;;;;;;;5071257;28;19915;-73
2022/12/01 07:10:19;;;;;;;;;;;;;;;;;;5070549;28;20368;-72
2022/12/01 07:12:46;;;;;;;;;;;;;;;;;;5053628;28;19908;-72
2022/12/01 07:15:18;;;;;;;;;;;;;;;;;;5071665;28;19931;-73
2022/12/01 07:17:48;;;;;;;;;;;;;;;;;;5053811;28;19916;-72
2022/12/01 07:20:16;;;;;;;;;;;;;;;;;;5072054;28;19908;-71
2022/12/01 07:22:42;;;;;;;;;;;;;;;;;;5079716;28;20450;-71
2022/12/01 07:25:12;;;;;;;;;;;;;;;;;;5074784;28;20015;-74
2022/12/01 07:27:45;;;;;;;;;;;;;;;;;;5074130;28;19931;-75
2022/12/01 07:30:19;;;;;;;;;;;;;;;;;;5075296;28;20007;-80
2022/12/01 07:32:49;;;;;;;;;;;;;;;;;;5076516;28;19951;-73
2022/12/01 07:35:19;;;;;;;;;;;;;;;;;;5051418;28;19916;-75
2022/12/01 07:37:51;;;;;;;;;;;;;;;;;;5056889;28;20396;-73
2022/12/01 07:40:20;;;;;;;;;;;;;;;;;;5075977;28;19918;-73
2022/12/01 07:42:46;;;;;;;;;;;;;;;;;;5076376;28;19908;-72
2022/12/01 07:45:15;;;;;;;;;;;;;;;;;;5076287;28;20614;-75
2022/12/01 07:47:46;;;;;;;;;;;;;;;;;;5056809;28;20369;-74
2022/12/01 07:50:15;;;;;;;;;;;;;;;;;;5052304;28;20003;-72
2022/12/01 07:52:49;;;;;;;;;;;;;;;;;;5051650;28;19988;-70
2022/12/01 07:55:21;;;;;;;;;;;;;;;;;;5073673;28;20376;-74
2022/12/01 07:57:52;;;;;;;;;;;;;;;;;;5072741;28;19962;-75
2022/12/01 08:00:20;;;;;;;;;;;;;;;;;;5071832;28;19913;-75
2022/12/01 08:02:46;;;;;;;;;;;;;;;;;;5072554;28;19912;-77
2022/12/01 08:05:16;;;;;;;;;;;;;;;;;;5070791;28;19942;-76
2022/12/01 08:07:48;;;;;;;;;;;;;;;;;;5074539;28;20007;-72
2022/12/01 08:10:14;;;;;;;;;;;;;;;;;;5094015;28;20655;-73
2022/12/01 08:12:40;;;;;;;;;;;;;;;;;;5057600;28;19954;-76
2022/12/01 08:15:06;;;;;;;;;;;;;;;;;;5060448;28;19913;-77
2022/12/01 08:17:31;;;;;;;;;;;;;;;;;;5068123;28;20376;-74
2022/12/01 08:20:02;;;;;;;;;;;;;;;;;;5070874;28;20383;-73
2022/12/01 08:22:32;;;;;;;;;;;;;;;;;;5072707;28;19909;-76
2022/12/01 08:25:02;;;;;;;;;;;;;;;;;;5072913;28;19924;-73
2022/12/01 08:27:31;;;;;;;;;;;;;;;;;;5072513;28;20309;-69
2022/12/01 08:30:02;;;;;;;;;;;;;;;;;;5070393;28;20289;-72
2022/12/01 08:32:32;;;;;;;;;;;;;;;;;;5071698;28;19916;-75
2022/12/01 08:35:05;;;;;;;;;;;;;;;;;;5072027;28;19918;-75
2022/12/01 08:37:32;;;;;;;;;;;;;;;;;;5072355;28;19965;-77
2022/12/01 08:40:04;;;;;;;;;;;;;;;;;;5072964;28;19909;-73
2022/12/01 08:42:30;;;;;;;;;;;;;;;;;;5055903;28;19908;-74
2022/12/01 08:44:56;;;;;;;;;;;;;;;;;;5092149;28;19920;-73
2022/12/01 08:47:22;;;;;;;;;;;;;;;;;;5090860;28;19947;-81
2022/12/01 08:49:48;;;;;;;;;;;;;;;;;;5091313;28;19953;-70
2022/12/01 08:52:14;;;;;;;;;;;;;;;;;;5092391;28;19908;-69
2022/12/01 08:54:39;;;;;;;;;;;;;;;;;;5091788;28;19912;-70
2022/12/01 08:57:05;;;;;;;;;;;;;;;;;;5092792;28;20341;-71
2022/12/01 08:59:31;;;;;;;;;;;;;;;;;;5092790;28;19915;-70
2022/12/01 09:02:00;;;;;;;;;;;;;;;;;;5094053;28;19908;-71
2022/12/01 09:04:26;;;;;;;;;;;;;;;;;;5093279;28;20343;-70
2022/12/01 09:06:56;;;;;;;;;;;;;;;;;;5093569;28;19927;-70
2022/12/01 09:09:27;;;;;;;;;;;;;;;;;;5093885;28;19915;-70
2022/12/01 09:12:00;;;;;;;;;;;;;;;;;;5092046;28;19908;-70
2022/12/01 09:14:31;;;;;;;;;;;;;;;;;;5093904;28;20275;-70
2022/12/01 09:17:02;;;;;;;;;;;;;;;;;;5091998;28;19915;-70
2022/12/01 09:19:32;;;;;;;;;;;;;;;;;;5093838;28;19951;-69
2022/12/01 09:22:01;;;;;;;;;;;;;;;;;;5093620;28;19954;-70
2022/12/01 09:24:29;;;;;;;;;;;;;;;;;;5092163;28;19915;-70
2022/12/01 09:26:59;;;;;;;;;;;;;;;;;;5091017;28;19916;-69
2022/12/01 09:29:30;;;;;;;;;;;;;;;;;;5096695;28;19907;-71
2022/12/01 09:32:03;;;;;;;;;;;;;;;;;;5102020;28;19998;-70
2022/12/01 09:34:30;;;;;;;;;;;;;;;;;;5092036;28;19912;-70
2022/12/01 09:37:01;;;;;;;;;;;;;;;;;;5086054;28;19916;-71
2022/12/01 09:39:32;;;;;;;;;;;;;;;;;;5072736;28;19920;-70
2022/12/01 09:42:02;;;;;;;;;;;;;;;;;;5088162;28;19915;-71
2022/12/01 09:44:33;;;;;;;;;;;;;;;;;;5087358;28;19981;-70
2022/12/01 09:47:03;;;;;;;;;;;;;;;;;;5111724;28;19919;-70
2022/12/01 09:49:30;;;;;;;;;;;;;;;;;;5112792;28;20292;-70
2022/12/01 09:52:05;;;;;;;;;;;;;;;;;;5093866;28;19919;-69
2022/12/01 09:54:34;;;;;;;;;;;;;;;;;;5092604;28;20371;-70
2022/12/01 09:57:02;;;;;;;;;;;;;;;;;;5090696;28;19912;-69
2022/12/01 09:59:32;;;;;;;;;;;;;;;;;;5092396;28;19908;-69
2022/12/01 10:02:04;;;;;;;;;;;;;;;;;;5092892;28;19909;-69
2022/12/01 10:04:37;;;;;;;;;;;;;;;;;;5092738;28;19908;-69
2022/12/01 10:07:07;;;;;;;;;;;;;;;;;;5092339;28;19916;-69
2022/12/01 10:09:36;;;;;;;;;;;;;;;;;;5092454;28;19915;-69
2022/12/01 10:12:04;;;;;;;;;;;;;;;;;;5092670;28;19908;-69
2022/12/01 10:14:32;;;;;;;;;;;;;;;;;;5092269;28;19908;-69
2022/12/01 10:17:04;;;;;;;;;;;;;;;;;;5085795;28;19919;-69
2022/12/01 10:19:34;;;;;;;;;;;;;;;;;;5091514;28;19922;-71
2022/12/01 10:22:03;;;;;;;;;;;;;;;;;;5091321;28;19955;-74
2022/12/01 10:24:36;;;;;;;;;;;;;;;;;;5090091;28;20022;-74
2022/12/01 10:27:08;;;;;;;;;;;;;;;;;;5090296;28;19920;-71
2022/12/01 10:29:37;;;;;;;;;;;;;;;;;;5091027;28;20325;-71
2022/12/01 10:32:06;;;;;;;;;;;;;;;;;;5090948;28;19908;-74
2022/12/01 10:34:37;;;;;;;;;;;;;;;;;;5090247;28;19916;-77
2022/12/01 10:37:05;;;;;;;;;;;;;;;;;;5106952;28;19941;-74
2022/12/01 10:39:37;;;;;;;;;;;;;;;;;;5099488;28;19952;-72
2022/12/01 10:42:03;;;;;;;;;;;;;;;;;;5090494;28;19912;-71
2022/12/01 10:44:33;;;;;;;;;;;;;;;;;;5105582;28;20407;-76
2022/12/01 10:47:00;;;;;;;;;;;;;;;;;;5111405;28;20387;-78
2022/12/01 10:49:28;;;;;;;;;;;;;;;;;;5112732;28;19915;-72
2022/12/01 10:51:57;;;;;;;;;;;;;;;;;;5109588;28;20287;-75
2022/12/01 10:54:30;;;;;;;;;;;;;;;;;;5107550;28;20310;-72
2022/12/01 10:56:56;;;;;;;;;;;;;;;;;;5099967;28;19908;-74
2022/12/01 10:59:26;;;;;;;;;;;;;;;;;;5094470;28;19908;-77
2022/12/01 11:01:58;;;;;;;;;;;;;;;;;;5095829;28;20444;-72
2022/12/01 11:04:31;;;;;;;;;;;;;;;;;;5095621;28;20011;-74
2022/12/01 11:06:58;;;;;;;;;;;;;;;;;;5094236;28;19990;-75
2022/12/01 11:09:27;;;;;;;;;;;;;;;;;;5095327;28;20407;-74
2022/12/01 11:11:57;;;;;;;;;;;;;;;;;;5090858;28;19954;-78
2022/12/01 11:14:29;;;;;;;;;;;;;;;;;;5094644;28;19916;-73
2022/12/01 11:16:59;;;;;;;;;;;;;;;;;;5096303;28;19908;-73
2022/12/01 11:19:27;;;;;;;;;;;;;;;;;;5095909;28;20716;-72
2022/12/01 11:22:00;;;;;;;;;;;;;;;;;;5095979;28;19909;-73
2022/12/01 11:24:33;;;;;;;;;;;;;;;;;;5095085;28;19912;-78
2022/12/01 11:27:03;;;;;;;;;;;;;;;;;;5096019;28;19920;-78
2022/12/01 11:29:34;;;;;;;;;;;;;;;;;;5096095;28;19908;-80
2022/12/01 11:32:07;;;;;;;;;;;;;;;;;;5097553;28;19908;-74
2022/12/01 11:34:39;;;;;;;;;;;;;;;;;;5097330;28;19950;-75
2022/12/01 11:37:12;;;;;;;;;;;;;;;;;;5090571;28;20030;-75
2022/12/01 11:39:44;;;;;;;;;;;;;;;;;;5094112;28;19908;-72
2022/12/01 11:42:15;;;;;;;;;;;;;;;;;;5092151;28;19913;-75
2022/12/01 11:44:47;;;;;;;;;;;;;;;;;;5092985;28;19959;-74
2022/12/01 11:47:17;;;;;;;;;;;;;;;;;;5093999;28;19994;-77
2022/12/01 11:49:48;;;;;;;;;;;;;;;;;;5096840;28;19908;-77
2022/12/01 11:52:20;;;;;;;;;;;;;;;;;;5095626;28;19908;-78
2022/12/01 11:54:51;;;;;;;;;;;;;;;;;;5093624;28;19908;-77
2022/12/01 11:57:21;;;;;;;;;;;;;;;;;;5092945;28;19912;-79
2022/12/01 11:59:53;;;;;;;;;;;;;;;;;;5093828;28;19915;-75
2022/12/01 12:02:28;;;;;;;;;;;;;;;;;;5093592;28;19912;-76
2022/12/01 12:05:01;;;;;;;;;;;;;;;;;;5095758;28;19951;-74
2022/12/01 12:07:31;;;;;;;;;;;;;;;;;;5094381;28;19915;-76
2022/12/01 12:10:04;;;;;;;;;;;;;;;;;;5095162;28;19998;-78
2022/12/01 12:12:34;;;;;;;;;;;;;;;;;;5093704;28;19914;-80
2022/12/01 12:15:04;;;;;;;;;;;;;;;;;;5095958;28;20383;-81
2022/12/01 12:17:31;;;;;;;;;;;;;;;;;;5095512;28;19963;-75
2022/12/01 12:20:02;;;;;;;;;;;;;;;;;;5095893;28;19915;-75
2022/12/01 12:22:31;;;;;;;;;;;;;;;;;;5094189;28;19916;-80
2022/12/01 12:25:03;;;;;;;;;;;;;;;;;;5095280;28;20014;-79
2022/12/01 12:27:31;;;;;;;;;;;;;;;;;;5095264;28;19958;-80
2022/12/01 12:30:01;;;;;;;;;;;;;;;;;;5096573;28;19998;-77
2022/12/01 12:32:31;;;;;;;;;;;;;;;;;;5098476;28;20353;-81
2022/12/01 12:35:04;;;;;;;;;;;;;;;;;;5096911;28;19919;-79
2022/12/01 12:37:34;;;;;;;;;;;;;;;;;;5098238;28;19908;-84
2022/12/01 12:40:05;;;;;;;;;;;;;;;;;;5096513;28;19943;-79
2022/12/01 12:42:33;;;;;;;;;;;;;;;;;;5097580;28;19969;-81
2022/12/01 12:45:02;;;;;;;;;;;;;;;;;;5099182;28;19924;-77
2022/12/01 12:47:32;;;;;;;;;;;;;;;;;;5095605;28;19912;-84
2022/12/01 12:50:04;;;;;;;;;;;;;;;;;;5075366;28;19989;-78
2022/12/01 12:52:32;;;;;;;;;;;;;;;;;;5076981;28;19908;-80
2022/12/01 12:55:03;;;;;;;;;;;;;;;;;;5074831;28;19938;-77
2022/12/01 12:57:35;;;;;;;;;;;;;;;;;;5056570;28;20368;-77
2022/12/01 13:00:05;;;;;;;;;;;;;;;;;;5076512;28;19943;-79
2022/12/01 13:02:36;;;;;;;;;;;;;;;;;;5075762;28;19912;-82
2022/12/01 13:05:08;;;;;;;;;;;;;;;;;;5056785;28;20327;-78
2022/12/01 13:07:40;;;;;;;;;;;;;;;;;;5074125;28;20003;-77
2022/12/01 13:10:12;;;;;;;;;;;;;;;;;;5073189;28;19920;-77
2022/12/01 13:12:39;;;;;;;;;;;;;;;;;;5055712;28;19923;-79
2022/12/01 13:15:13;;;;;;;;;;;;;;;;;;5073984;28;19915;-79
2022/12/01 13:17:43;;;;;;;;;;;;;;;;;;5073594;28;19983;-78
2022/12/01 13:20:16;;;;;;;;;;;;;;;;;;5073888;28;19908;-77
2022/12/01 13:22:46;;;;;;;;;;;;;;;;;;5073640;28;20037;-79
2022/12/01 13:25:18;;;;;;;;;;;;;;;;;;5074129;28;19912;-76
2022/12/01 13:27:50;;;;;;;;;;;;;;;;;;5074647;28;19950;-78
2022/12/01 13:30:23;;;;;;;;;;;;;;;;;;5073684;28;19908;-76
2022/12/01 13:32:54;;;;;;;;;;;;;;;;;;5072283;28;19913;-84
2022/12/01 13:35:22;;;;;;;;;;;;;;;;;;5068269;28;20069;-85
2022/12/01 13:37:49;;;;;;;;;;;;;;;;;;5076789;28;19908;-82
2022/12/01 13:40:15;;;;;;;;;;;;;;;;;;5057894;28;19957;-84
2022/12/01 13:42:40;;;;;;;;;;;;;;;;;;5073412;28;19916;-76
2022/12/01 13:45:06;;;;;;;;;;;;;;;;;;5089055;28;20442;-79
2022/12/01 13:47:34;;;;;;;;;;;;;;;;;;5093002;28;20837;-77
2022/12/01 13:50:00;;;;;;;;;;;;;;;;;;5090940;28;19965;-80
2022/12/01 13:52:27;;;;;;;;;;;;;;;;;;5092931;28;19912;-73
2022/12/01 13:54:53;;;;;;;;;;;;;;;;;;5093451;28;19915;-73
2022/12/01 13:57:19;;;;;;;;;;;;;;;;;;5094017;28;19908;-72
2022/12/01 13:59:45;;;;;;;;;;;;;;;;;;5093658;28;19961;-71
2022/12/01 14:02:10;;;;;;;;;;;;;;;;;;5092539;28;19951;-74
2022/12/01 14:04:36;;;;;;;;;;;;;;;;;;5094096;28;19915;-73
2022/12/01 14:07:02;;;;;;;;;;;;;;;;;;5093496;28;19916;-73
2022/12/01 14:09:28;;;;;;;;;;;;;;;;;;5094591;28;19908;-72
2022/12/01 14:11:54;;;;;;;;;;;;;;;;;;5092199;28;20362;-71
2022/12/01 14:14:20;;;;;;;;;;;;;;;;;;5093886;28;20018;-72
2022/12/01 14:16:46;;;;;;;;;;;;;;;;;;5093800;28;19914;-72
2022/12/01 14:19:12;;;;;;;;;;;;;;;;;;5093430;28;20387;-73
2022/12/01 14:21:38;;;;;;;;;;;;;;;;;;5092583;28;19908;-71
2022/12/01 14:24:04;;;;;;;;;;;;;;;;;;5094163;28;19915;-72
2022/12/01 14:26:30;;;;;;;;;;;;;;;;;;5093382;28;19916;-72
2022/12/01 14:28:56;;;;;;;;;;;;;;;;;;5093964;28;19960;-72
2022/12/01 14:31:22;;;;;;;;;;;;;;;;;;5098160;28;20372;-73
2022/12/01 14:33:49;;;;;;;;;;;;;;;;;;5097431;28;19915;-72
2022/12/01 14:36:15;;;;;;;;;;;;;;;;;;5096556;28;20333;-73
2022/12/01 14:38:41;;;;;;;;;;;;;;;;;;5097723;28;19920;-72
2022/12/01 14:41:07;;;;;;;;;;;;;;;;;;5097529;28;19908;-72
2022/12/01 14:46:18;;;;;;;;;;;;;;;;;;5097595;28;19924;-71
2022/12/01 14:48:44;;;;;;;;;;;;;;;;;;5097044;28;19908;-71
2022/12/01 14:51:10;;;;;;;;;;;;;;;;;;5096289;28;20376;-71
2022/12/01 14:53:36;;;;;;;;;;;;;;;;;;5097501;28;19908;-71
2022/12/01 14:56:02;;;;;;;;;;;;;;;;;;5095831;28;19908;-72
2022/12/01 14:58:28;;;;;;;;;;;;;;;;;;5096072;28;19915;-71
2022/12/01 15:00:54;;;;;;;;;;;;;;;;;;5097523;28;19908;-72
2022/12/01 15:03:20;;;;;;;;;;;;;;;;;;5096878;28;19908;-71
2022/12/01 15:05:46;;;;;;;;;;;;;;;;;;5097069;28;20018;-72
2022/12/01 15:08:12;;;;;;;;;;;;;;;;;;5095490;28;19908;-72
2022/12/01 15:10:38;;;;;;;;;;;;;;;;;;5097191;28;20437;-73
2022/12/01 15:13:04;;;;;;;;;;;;;;;;;;5097112;28;19915;-71
2022/12/01 15:15:30;;;;;;;;;;;;;;;;;;5096715;28;19961;-71
2022/12/01 15:18:00;;;;;;;;;;;;;;;;;;5096946;28;19908;-71
2022/12/01 15:20:26;;;;;;;;;;;;;;;;;;5096858;28;19908;-71
2022/12/01 15:22:52;;;;;;;;;;;;;;;;;;5096485;28;19999;-71
2022/12/01 15:25:18;;;;;;;;;;;;;;;;;;5096722;28;19916;-71
2022/12/01 15:27:44;;;;;;;;;;;;;;;;;;5096836;28;20317;-72
2022/12/01 15:30:10;;;;;;;;;;;;;;;;;;5096431;28;19908;-72
2022/12/01 15:32:41;;;;;;;;;;;;;;;;;;5095441;28;19957;-71
2022/12/01 15:35:07;;;;;;;;;;;;;;;;;;5096813;28;19908;-71
2022/12/01 15:37:33;;;;;;;;;;;;;;;;;;5096425;28;20374;-72
2022/12/01 15:40:00;;;;;;;;;;;;;;;;;;5096696;28;20245;-72
2022/12/01 15:42:26;;;;;;;;;;;;;;;;;;5094031;28;19908;-71
2022/12/01 15:44:52;;;;;;;;;;;;;;;;;;5095870;28;19927;-72
2022/12/01 15:47:18;;;;;;;;;;;;;;;;;;5095187;28;19912;-72
2022/12/01 15:49:44;;;;;;;;;;;;;;;;;;5096405;28;19946;-72
2022/12/01 15:52:10;;;;;;;;;;;;;;;;;;5096067;28;19912;-73
2022/12/01 15:54:36;;;;;;;;;;;;;;;;;;5096436;28;20003;-73
2022/12/01 15:57:02;;;;;;;;;;;;;;;;;;5096271;28;19956;-73
2022/12/01 15:59:28;;;;;;;;;;;;;;;;;;5095955;28;19995;-72
2022/12/01 16:01:55;;;;;;;;;;;;;;;;;;5096238;28;19915;-73
2022/12/01 16:04:21;;;;;;;;;;;;;;;;;;5096180;28;19912;-73
2022/12/01 16:06:47;;;;;;;;;;;;;;;;;;5095643;28;19938;-73
2022/12/01 16:09:13;;;;;;;;;;;;;;;;;;5094764;28;19985;-72
2022/12/01 16:11:39;;;;;;;;;;;;;;;;;;5095606;28;19987;-73
2022/12/01 16:14:07;;;;;;;;;;;;;;;;;;5095971;28;19908;-73
2022/12/01 16:16:32;;;;;;;;;;;;;;;;;;5095981;28;19908;-74
2022/12/01 16:18:58;;;;;;;;;;;;;;;;;;5095705;28;20288;-72
2022/12/01 16:21:24;;;;;;;;;;;;;;;;;;5096200;28;20057;-73
2022/12/01 16:23:50;;;;;;;;;;;;;;;;;;5095775;28;20300;-73
2022/12/01 16:26:16;;;;;;;;;;;;;;;;;;5095187;28;19920;-73
2022/12/01 16:28:42;;;;;;;;;;;;;;;;;;5094219;28;19915;-72
2022/12/01 16:31:08;;;;;;;;;;;;;;;;;;5095704;28;19908;-72
2022/12/01 16:33:34;;;;;;;;;;;;;;;;;;5095131;28;19916;-72
2022/12/01 16:36:00;;;;;;;;;;;;;;;;;;5095461;28;20002;-73
2022/12/01 16:38:27;;;;;;;;;;;;;;;;;;5095503;28;19908;-73
2022/12/01 16:40:53;;;;;;;;;;;;;;;;;;5093859;28;19914;-73
2022/12/01 16:43:19;;;;;;;;;;;;;;;;;;5095585;28;19998;-73
2022/12/01 16:45:45;;;;;;;;;;;;;;;;;;5095542;28;19924;-73
2022/12/01 16:48:11;;;;;;;;;;;;;;;;;;5095010;28;19912;-73
2022/12/01 16:50:37;;;;;;;;;;;;;;;;;;5095290;28;19915;-73
2022/12/01 16:53:03;;;;;;;;;;;;;;;;;;5094826;28;20006;-73
2022/12/01 16:55:29;;;;;;;;;;;;;;;;;;5094672;28;19908;-73